createdAt,value
2016-03-30T00:00:32.467Z,9.79
2016-03-30T00:01:32.485Z,9.86
2016-03-30T00:02:32.503Z,9.89
2016-03-30T00:03:32.522Z,9.92
2016-03-30T00:04:32.525Z,9.89
2016-03-30T00:05:32.573Z,9.98
2016-03-30T00:06:32.545Z,10.04
2016-03-30T00:07:32.564Z,9.94
2016-03-30T00:08:32.567Z,9.91
2016-03-30T00:09:32.600Z,9.94
2016-03-30T00:10:32.619Z,9.95
2016-03-30T00:11:32.622Z,10.02
2016-03-30T00:12:32.640Z,9.99
2016-03-30T00:13:32.658Z,10.01
2016-03-30T00:14:32.676Z,10.02
2016-03-30T00:15:32.680Z,9.95
2016-03-30T00:16:32.697Z,9.91
2016-03-30T00:17:32.716Z,10.04
2016-03-30T00:18:32.750Z,10.04
2016-03-30T00:19:32.737Z,9.98
2016-03-30T00:20:32.755Z,9.99
2016-03-30T00:21:32.757Z,10.01
2016-03-30T00:22:32.777Z,10.01
2016-03-30T00:23:32.826Z,10.02
2016-03-30T00:24:32.813Z,10.04
2016-03-30T00:25:32.815Z,9.94
2016-03-30T00:26:32.865Z,9.94
2016-03-30T00:27:32.852Z,9.98
2016-03-30T00:28:32.870Z,10.01
2016-03-30T00:29:32.888Z,9.98
2016-03-30T00:30:32.891Z,9.89
2016-03-30T00:31:32.909Z,9.91
2016-03-30T00:32:32.943Z,9.91
2016-03-30T00:33:32.961Z,9.94
2016-03-30T00:34:32.964Z,9.98
2016-03-30T00:35:32.983Z,9.89
2016-03-30T00:36:32.985Z,9.89
2016-03-30T00:37:32.989Z,9.98
2016-03-30T00:38:33.022Z,9.86
2016-03-30T00:39:33.025Z,9.91
2016-03-30T00:40:33.059Z,9.87
2016-03-30T00:41:33.061Z,9.89
2016-03-30T00:42:33.080Z,9.91
2016-03-30T00:43:33.097Z,9.91
2016-03-30T00:44:33.101Z,10.01
2016-03-30T00:45:33.119Z,9.99
2016-03-30T00:46:33.122Z,9.95
2016-03-30T00:47:33.140Z,10.01
2016-03-30T00:48:33.158Z,10.01
2016-03-30T00:49:33.161Z,9.95
2016-03-30T00:50:33.180Z,10.04
2016-03-30T00:51:33.198Z,9.91
2016-03-30T00:52:33.200Z,9.94
2016-03-30T00:53:33.218Z,9.94
2016-03-30T00:54:33.237Z,9.89
2016-03-30T00:55:33.271Z,9.95
2016-03-30T00:56:33.274Z,9.91
2016-03-30T00:57:33.292Z,9.97
2016-03-30T00:58:33.295Z,9.99
2016-03-30T00:59:33.313Z,9.86
2016-03-30T01:00:33.315Z,9.91
2016-03-30T01:01:33.335Z,9.98
2016-03-30T01:02:33.352Z,9.92
2016-03-30T01:03:33.371Z,9.87
2016-03-30T01:04:33.373Z,9.87
2016-03-30T01:05:33.407Z,9.94
2016-03-30T01:06:33.407Z,9.86
2016-03-30T01:07:33.415Z,9.86
2016-03-30T01:08:33.407Z,9.84
2016-03-30T01:09:33.430Z,9.8
2016-03-30T01:10:33.438Z,9.77
2016-03-30T01:11:33.416Z,9.77
2016-03-30T01:12:33.430Z,9.83
2016-03-30T01:13:33.443Z,9.83
2016-03-30T01:14:33.458Z,9.86
2016-03-30T01:15:33.456Z,9.82
2016-03-30T01:16:33.471Z,9.92
2016-03-30T01:17:33.503Z,9.87
2016-03-30T01:18:33.488Z,9.92
2016-03-30T01:19:33.506Z,9.98
2016-03-30T01:20:33.523Z,9.95
2016-03-30T01:21:33.524Z,9.92
2016-03-30T01:22:33.558Z,9.91
2016-03-30T01:23:33.575Z,10.01
2016-03-30T01:24:33.577Z,9.95
2016-03-30T01:25:33.595Z,9.98
2016-03-30T01:26:33.614Z,9.95
2016-03-30T01:27:33.617Z,9.89
2016-03-30T01:28:33.634Z,10.01
2016-03-30T01:29:33.653Z,9.98
2016-03-30T01:30:33.656Z,10.04
2016-03-30T01:31:33.674Z,10.04
2016-03-30T01:32:33.708Z,10.01
2016-03-30T01:33:33.711Z,10.04
2016-03-30T01:34:33.714Z,10.17
2016-03-30T01:35:33.747Z,10.19
2016-03-30T01:36:33.733Z,10.16
2016-03-30T01:37:33.752Z,10.12
2016-03-30T01:38:33.771Z,10.16
2016-03-30T01:39:33.821Z,10.26
2016-03-30T01:40:33.792Z,10.26
2016-03-30T01:41:33.826Z,10.26
2016-03-30T01:42:33.844Z,10.19
2016-03-30T01:43:33.862Z,10.19
2016-03-30T01:44:33.866Z,10.17
2016-03-30T01:45:33.118Z,10.07
2016-03-30T01:46:33.886Z,10.05
2016-03-30T01:47:33.904Z,10.07
2016-03-30T01:48:33.939Z,10.01
2016-03-30T01:49:33.785Z,9.97
2016-03-30T01:50:33.944Z,10.04
2016-03-30T01:51:33.963Z,9.99
2016-03-30T01:52:33.965Z,9.99
2016-03-30T01:53:34.029Z,9.87
2016-03-30T01:54:34.017Z,9.87
2016-03-30T01:55:34.035Z,9.97
2016-03-30T01:56:34.038Z,9.91
2016-03-30T01:57:34.057Z,10.01
2016-03-30T01:58:34.075Z,9.91
2016-03-30T01:59:34.092Z,9.95
2016-03-30T02:00:34.095Z,9.87
2016-03-30T02:01:34.114Z,9.91
2016-03-30T02:02:34.117Z,9.87
2016-03-30T02:03:34.135Z,9.91
2016-03-30T02:04:34.169Z,9.95
2016-03-30T02:05:34.156Z,9.95
2016-03-30T02:06:34.174Z,9.84
2016-03-30T02:07:34.177Z,9.92
2016-03-30T02:08:34.242Z,9.83
2016-03-30T02:09:34.214Z,9.83
2016-03-30T02:10:34.232Z,9.84
2016-03-30T02:11:34.250Z,9.77
2016-03-30T02:12:34.252Z,9.84
2016-03-30T02:13:34.272Z,9.83
2016-03-30T02:14:34.290Z,9.84
2016-03-30T02:15:34.307Z,9.82
2016-03-30T02:16:34.327Z,9.86
2016-03-30T02:17:34.329Z,9.83
2016-03-30T02:18:48.457Z,9.87
2016-03-30T02:19:34.347Z,9.79
2016-03-30T02:20:34.366Z,9.8
2016-03-30T02:21:34.368Z,9.86
2016-03-30T02:22:34.402Z,9.83
2016-03-30T02:23:34.437Z,9.82
2016-03-30T02:24:34.423Z,9.82
2016-03-30T02:25:34.457Z,9.77
2016-03-30T02:26:34.304Z,9.72
2016-03-30T02:27:34.479Z,9.68
2016-03-30T02:28:34.481Z,9.65
2016-03-30T02:29:34.515Z,9.68
2016-03-30T02:30:34.534Z,9.74
2016-03-30T02:31:34.521Z,9.82
2016-03-30T02:32:34.539Z,9.83
2016-03-30T02:33:34.557Z,9.77
2016-03-30T02:34:34.559Z,9.77
2016-03-30T02:35:34.578Z,9.84
2016-03-30T02:36:34.612Z,9.86
2016-03-30T02:37:34.646Z,9.86
2016-03-30T02:38:34.617Z,9.91
2016-03-30T02:39:34.636Z,9.83
2016-03-30T02:40:34.669Z,9.86
2016-03-30T02:41:34.672Z,9.77
2016-03-30T02:42:34.706Z,9.86
2016-03-30T02:43:34.709Z,9.89
2016-03-30T02:44:34.727Z,9.89
2016-03-30T02:45:34.730Z,9.83
2016-03-30T02:46:34.733Z,9.91
2016-03-30T02:47:34.766Z,9.91
2016-03-30T02:48:34.769Z,9.98
2016-03-30T02:49:34.787Z,9.89
2016-03-30T02:50:34.791Z,9.98
2016-03-30T02:51:34.808Z,9.91
2016-03-30T02:52:34.827Z,10.01
2016-03-30T02:53:34.846Z,9.99
2016-03-30T02:54:34.863Z,9.95
2016-03-30T02:55:34.866Z,10.02
2016-03-30T02:56:34.869Z,10.02
2016-03-30T02:57:34.903Z,9.97
2016-03-30T02:58:34.938Z,9.99
2016-03-30T02:59:34.940Z,9.97
2016-03-30T03:00:34.926Z,9.97
2016-03-30T03:01:34.945Z,9.98
2016-03-30T03:02:34.979Z,10.07
2016-03-30T03:03:34.981Z,9.99
2016-03-30T03:04:35.015Z,10.07
2016-03-30T03:05:35.003Z,10.02
2016-03-30T03:06:35.021Z,10.04
2016-03-30T03:07:35.023Z,10.04
2016-03-30T03:08:35.058Z,10.17
2016-03-30T03:09:35.061Z,10.16
2016-03-30T03:10:35.109Z,10.16
2016-03-30T03:11:35.097Z,10.2
2016-03-30T03:12:35.131Z,10.1
2016-03-30T03:13:35.149Z,10.13
2016-03-30T03:14:35.136Z,10.12
2016-03-30T03:15:35.155Z,10.1
2016-03-30T03:16:35.173Z,10.15
2016-03-30T03:17:35.176Z,10.07
2016-03-30T03:18:35.179Z,10.16
2016-03-30T03:19:35.212Z,10.04
2016-03-30T03:20:35.231Z,10.02
2016-03-30T03:21:35.234Z,10.04
2016-03-30T03:22:35.252Z,10.1
2016-03-30T03:23:35.270Z,10.05
2016-03-30T03:24:35.289Z,10.15
2016-03-30T03:25:35.307Z,10.19
2016-03-30T03:26:35.310Z,10.16
2016-03-30T03:27:35.328Z,10.17
2016-03-30T03:28:35.346Z,10.25
2016-03-30T03:29:35.349Z,10.19
2016-03-30T03:30:35.368Z,10.26
2016-03-30T03:31:35.401Z,10.19
2016-03-30T03:32:35.387Z,10.22
2016-03-30T03:33:35.406Z,10.22
2016-03-30T03:34:35.424Z,10.15
2016-03-30T03:35:35.443Z,10.17
2016-03-30T03:36:35.476Z,10.13
2016-03-30T03:37:35.480Z,10.2
2016-03-30T03:38:35.482Z,10.15
2016-03-30T03:39:35.485Z,10.13
2016-03-30T03:40:35.504Z,10.13
2016-03-30T03:41:35.522Z,10.15
2016-03-30T03:42:35.556Z,10.07
2016-03-30T03:43:35.558Z,10.05
2016-03-30T03:44:35.561Z,10.05
2016-03-30T03:45:35.579Z,10.07
2016-03-30T03:46:35.597Z,10.07
2016-03-30T03:47:35.601Z,10.15
2016-03-30T03:48:35.634Z,10.07
2016-03-30T03:49:35.653Z,10.07
2016-03-30T03:50:35.656Z,10.05
2016-03-30T03:51:35.658Z,9.99
2016-03-30T03:52:35.677Z,10.07
2016-03-30T03:53:35.710Z,10.09
2016-03-30T03:54:35.713Z,10.09
2016-03-30T03:55:35.716Z,10.05
2016-03-30T03:56:35.780Z,10.02
2016-03-30T03:57:35.768Z,10.13
2016-03-30T03:58:35.770Z,10.04
2016-03-30T03:59:35.773Z,10.05
2016-03-30T04:00:35.807Z,10.1
2016-03-30T04:01:35.810Z,10.02
2016-03-30T04:02:35.828Z,10.01
2016-03-30T04:03:35.846Z,9.99
2016-03-30T04:04:35.865Z,9.99
2016-03-30T04:05:35.867Z,9.98
2016-03-30T04:06:35.885Z,9.95
2016-03-30T04:07:35.888Z,10.01
2016-03-30T04:08:35.907Z,9.91
2016-03-30T04:09:35.925Z,10.02
2016-03-30T04:10:35.943Z,9.91
2016-03-30T04:11:35.978Z,10.04
2016-03-30T04:12:35.980Z,9.92
2016-03-30T04:13:35.983Z,9.94
2016-03-30T04:14:35.985Z,10.04
2016-03-30T04:15:36.222Z,10.04
2016-03-30T04:16:36.022Z,10.05
2016-03-30T04:17:36.039Z,10.01
2016-03-30T04:18:36.075Z,9.91
2016-03-30T04:19:36.077Z,9.89
2016-03-30T04:20:36.064Z,9.86
2016-03-30T04:21:36.098Z,9.8
2016-03-30T04:22:36.117Z,9.87
2016-03-30T04:23:36.119Z,9.89
2016-03-30T04:24:36.138Z,9.89
2016-03-30T04:25:36.202Z,9.84
2016-03-30T04:26:36.174Z,9.83
2016-03-30T04:27:36.177Z,9.86
2016-03-30T04:28:36.195Z,9.91
2016-03-30T04:29:36.214Z,9.89
2016-03-30T04:30:36.232Z,9.74
2016-03-30T04:31:36.250Z,9.74
2016-03-30T04:32:36.300Z,9.68
2016-03-30T04:33:36.255Z,9.69
2016-03-30T04:34:36.321Z,9.74
2016-03-30T04:35:36.323Z,9.69
2016-03-30T04:36:36.326Z,9.79
2016-03-30T04:37:36.329Z,9.66
2016-03-30T04:38:36.331Z,9.69
2016-03-30T04:39:36.396Z,9.69
2016-03-30T04:40:36.414Z,9.72
2016-03-30T04:41:36.370Z,9.74
2016-03-30T04:42:36.389Z,9.69
2016-03-30T04:43:36.438Z,9.73
2016-03-30T04:44:36.426Z,9.64
2016-03-30T04:45:36.428Z,9.76
2016-03-30T04:46:36.493Z,9.66
2016-03-30T04:47:36.465Z,9.72
2016-03-30T04:48:36.515Z,9.66
2016-03-30T04:49:36.486Z,9.69
2016-03-30T04:50:36.504Z,9.62
2016-03-30T04:51:36.522Z,9.69
2016-03-30T04:52:36.541Z,9.73
2016-03-30T04:53:36.544Z,9.77
2016-03-30T04:54:36.561Z,9.76
2016-03-30T04:55:36.580Z,9.62
2016-03-30T04:56:36.582Z,9.69
2016-03-30T04:57:36.601Z,9.73
2016-03-30T04:58:36.604Z,9.87
2016-03-30T04:59:36.621Z,9.84
2016-03-30T05:00:36.641Z,9.84
2016-03-30T05:01:36.690Z,9.84
2016-03-30T05:02:36.677Z,9.92
2016-03-30T05:03:36.696Z,9.98
2016-03-30T05:04:36.698Z,9.91
2016-03-30T05:05:36.716Z,10.01
2016-03-30T05:06:36.734Z,9.99
2016-03-30T05:07:36.753Z,9.99
2016-03-30T05:08:36.756Z,10.07
2016-03-30T05:09:36.759Z,10.04
2016-03-30T05:10:36.793Z,10.15
2016-03-30T05:11:36.810Z,10.2
2016-03-30T05:12:36.813Z,10.23
2016-03-30T05:13:36.816Z,10.17
2016-03-30T05:14:36.851Z,10.19
2016-03-30T05:15:36.868Z,10.31
2016-03-30T05:16:36.887Z,10.33
2016-03-30T05:17:36.889Z,10.28
2016-03-30T05:18:36.892Z,10.31
2016-03-30T05:19:36.910Z,10.35
2016-03-30T05:20:36.944Z,10.31
2016-03-30T05:21:36.962Z,10.4
2016-03-30T05:22:36.964Z,10.44
2016-03-30T05:23:36.967Z,10.53
2016-03-30T05:24:36.986Z,10.54
2016-03-30T05:25:37.005Z,10.51
2016-03-30T05:26:37.008Z,10.53
2016-03-30T05:27:37.025Z,10.53
2016-03-30T05:28:37.028Z,10.51
2016-03-30T05:29:37.063Z,10.49
2016-03-30T05:30:37.096Z,10.54
2016-03-30T05:31:37.099Z,10.51
2016-03-30T05:32:37.101Z,10.61
2016-03-30T05:33:37.119Z,10.67
2016-03-30T05:34:36.982Z,10.63
2016-03-30T05:35:37.140Z,10.69
2016-03-30T05:36:37.174Z,10.75
2016-03-30T05:37:37.176Z,10.81
2016-03-30T05:38:37.195Z,10.75
2016-03-30T05:39:37.385Z,10.89
2016-03-30T05:40:37.232Z,10.9
2016-03-30T05:41:37.220Z,10.86
2016-03-30T05:42:37.254Z,10.9
2016-03-30T05:43:37.271Z,10.86
2016-03-30T05:44:37.290Z,10.82
2016-03-30T05:45:37.324Z,10.84
2016-03-30T05:46:37.326Z,10.81
2016-03-30T05:47:37.314Z,10.87
2016-03-30T05:48:37.331Z,10.9
2016-03-30T05:49:37.350Z,10.96
2016-03-30T05:50:37.353Z,10.93
2016-03-30T05:51:37.386Z,11
2016-03-30T05:52:37.390Z,10.9
2016-03-30T05:53:37.423Z,10.82
2016-03-30T05:54:37.426Z,10.82
2016-03-30T05:55:37.445Z,10.78
2016-03-30T05:56:37.463Z,10.82
2016-03-30T05:57:37.309Z,10.84
2016-03-30T05:58:37.483Z,10.87
2016-03-30T05:59:37.518Z,10.87
2016-03-30T06:00:37.521Z,10.78
2016-03-30T06:01:37.539Z,10.78
2016-03-30T06:02:37.541Z,10.67
2016-03-30T06:03:37.560Z,10.59
2016-03-30T06:04:37.562Z,10.6
2016-03-30T06:05:37.596Z,10.67
2016-03-30T06:06:37.599Z,10.51
2016-03-30T06:07:37.618Z,10.48
2016-03-30T06:08:37.636Z,10.53
2016-03-30T06:09:37.638Z,10.63
2016-03-30T06:10:37.657Z,10.64
2016-03-30T06:11:37.676Z,10.54
2016-03-30T06:12:37.678Z,10.64
2016-03-30T06:13:37.712Z,10.69
2016-03-30T06:14:37.729Z,10.64
2016-03-30T06:15:37.732Z,10.67
2016-03-30T06:16:37.751Z,10.69
2016-03-30T06:17:37.753Z,10.72
2016-03-30T06:18:37.772Z,10.69
2016-03-30T06:19:37.789Z,10.74
2016-03-30T06:20:37.792Z,10.67
2016-03-30T06:21:37.827Z,10.72
2016-03-30T06:22:37.844Z,10.71
2016-03-30T06:23:37.847Z,10.75
2016-03-30T06:24:37.866Z,10.69
2016-03-30T06:25:37.884Z,10.71
2016-03-30T06:26:37.903Z,10.63
2016-03-30T06:27:37.906Z,10.69
2016-03-30T06:28:37.939Z,10.59
2016-03-30T06:29:37.942Z,10.61
2016-03-30T06:30:37.960Z,10.63
2016-03-30T06:31:37.963Z,10.71
2016-03-30T06:32:37.982Z,10.72
2016-03-30T06:33:37.999Z,10.74
2016-03-30T06:34:38.019Z,10.68
2016-03-30T06:35:38.036Z,10.61
2016-03-30T06:36:38.086Z,10.57
2016-03-30T06:37:38.074Z,10.57
2016-03-30T06:38:38.076Z,10.63
2016-03-30T06:39:38.079Z,10.67
2016-03-30T06:40:38.112Z,10.64
2016-03-30T06:41:38.099Z,10.67
2016-03-30T06:42:38.149Z,10.56
2016-03-30T06:43:38.151Z,10.61
2016-03-30T06:44:38.154Z,10.74
2016-03-30T06:45:38.172Z,10.75
2016-03-30T06:46:38.207Z,10.76
2016-03-30T06:47:38.209Z,10.79
2016-03-30T06:48:38.228Z,10.75
2016-03-30T06:49:38.231Z,10.72
2016-03-30T06:50:38.295Z,10.74
2016-03-30T06:51:38.298Z,10.54
2016-03-30T06:52:38.285Z,10.61
2016-03-30T06:53:38.288Z,10.69
2016-03-30T06:54:38.306Z,10.75
2016-03-30T06:55:38.339Z,10.76
2016-03-30T06:56:38.327Z,10.82
2016-03-30T06:57:38.361Z,10.81
2016-03-30T06:58:38.379Z,10.9
2016-03-30T06:59:38.383Z,10.79
2016-03-30T07:00:38.400Z,10.89
2016-03-30T07:01:38.419Z,10.94
2016-03-30T07:02:38.422Z,10.84
2016-03-30T07:03:38.424Z,10.81
2016-03-30T07:04:38.458Z,10.9
2016-03-30T07:05:38.508Z,10.89
2016-03-30T07:06:38.541Z,10.86
2016-03-30T07:07:38.669Z,10.82
2016-03-30T07:08:38.516Z,11
2016-03-30T07:09:38.535Z,10.94
2016-03-30T07:10:38.553Z,11.08
2016-03-30T07:11:38.555Z,11.04
2016-03-30T07:12:38.590Z,11.22
2016-03-30T07:13:38.593Z,11.3
2016-03-30T07:14:38.627Z,11.47
2016-03-30T07:15:38.614Z,11.59
2016-03-30T07:16:38.632Z,11.62
2016-03-30T07:17:38.650Z,11.65
2016-03-30T07:18:38.653Z,11.78
2016-03-30T07:19:38.702Z,11.81
2016-03-30T07:20:38.705Z,11.84
2016-03-30T07:21:38.707Z,12.02
2016-03-30T07:22:38.726Z,12.12
2016-03-30T07:23:38.760Z,12.17
2016-03-30T07:24:38.778Z,12.29
2016-03-30T07:25:38.765Z,12.29
2016-03-30T07:26:38.799Z,12.31
2016-03-30T07:27:38.802Z,12.46
2016-03-30T07:28:38.821Z,12.57
2016-03-30T07:29:38.854Z,12.64
2016-03-30T07:30:38.857Z,12.75
2016-03-30T07:31:38.876Z,12.94
2016-03-30T07:32:38.894Z,13.05
2016-03-30T07:33:38.912Z,13.19
2016-03-30T07:34:38.914Z,13.27
2016-03-30T07:35:38.933Z,13.37
2016-03-30T07:36:38.951Z,13.44
2016-03-30T07:37:38.970Z,13.5
2016-03-30T07:38:38.989Z,13.6
2016-03-30T07:39:39.006Z,13.75
2016-03-30T07:40:39.041Z,13.81
2016-03-30T07:41:39.089Z,14
2016-03-30T07:42:39.092Z,14.05
2016-03-30T07:43:39.095Z,14.22
2016-03-30T07:44:39.083Z,14.28
2016-03-30T07:45:39.117Z,14.35
2016-03-30T07:46:39.119Z,14.47
2016-03-30T07:47:39.138Z,14.54
2016-03-30T07:48:39.155Z,14.55
2016-03-30T07:49:39.221Z,14.58
2016-03-30T07:50:39.208Z,14.7
2016-03-30T07:51:39.227Z,14.78
2016-03-30T07:52:39.229Z,14.94
2016-03-30T07:53:39.246Z,14.97
2016-03-30T07:54:39.265Z,15
2016-03-30T07:55:39.299Z,15.03
2016-03-30T07:56:39.318Z,15.11
2016-03-30T07:57:39.336Z,15.18
2016-03-30T07:58:39.354Z,15.22
2016-03-30T07:59:39.373Z,15.36
2016-03-30T08:00:39.407Z,15.37
2016-03-30T08:01:39.409Z,15.51
2016-03-30T08:02:39.412Z,15.4
2016-03-30T08:03:39.446Z,15.52
2016-03-30T08:04:39.355Z,15.57
2016-03-30T08:05:39.492Z,15.67
2016-03-30T08:06:39.608Z,15.82
2016-03-30T08:07:39.335Z,15.92
2016-03-30T08:08:39.717Z,16.08
2016-03-30T08:09:40.241Z,16.39
2016-03-30T08:10:39.572Z,16.56
2016-03-30T08:11:39.575Z,16.57
2016-03-30T08:12:39.609Z,16.76
2016-03-30T08:13:39.643Z,17.12
2016-03-30T08:14:39.630Z,17.33
2016-03-30T08:15:39.664Z,17.46
2016-03-30T08:16:39.681Z,17.64
2016-03-30T08:17:39.701Z,17.9
2016-03-30T08:18:39.719Z,17.94
2016-03-30T08:19:39.753Z,17.97
2016-03-30T08:20:39.755Z,18
2016-03-30T08:21:39.774Z,18.13
2016-03-30T08:22:39.636Z,18.28
2016-03-30T08:23:39.825Z,18.44
2016-03-30T08:24:39.845Z,18.56
2016-03-30T08:25:39.863Z,18.7
2016-03-30T08:26:39.913Z,18.84
2016-03-30T08:27:39.915Z,18.92
2016-03-30T08:28:39.933Z,19.16
2016-03-30T08:29:39.952Z,19.22
2016-03-30T08:30:39.986Z,19.09
2016-03-30T08:31:40.005Z,19.11
2016-03-30T08:32:40.023Z,19.11
2016-03-30T08:33:40.041Z,19.16
2016-03-30T08:34:40.060Z,19.18
2016-03-30T08:35:40.100Z,19.58
2016-03-30T08:36:40.117Z,19.63
2016-03-30T08:37:40.136Z,19.29
2016-03-30T08:38:40.155Z,19.4
2016-03-30T08:39:40.188Z,19.15
2016-03-30T08:40:40.206Z,19.12
2016-03-30T08:41:40.255Z,18.92
2016-03-30T08:42:40.258Z,18.93
2016-03-30T08:43:40.277Z,19.15
2016-03-30T08:44:40.318Z,19.51
2016-03-30T08:45:40.414Z,19.54
2016-03-30T08:46:40.354Z,19.63
2016-03-30T08:47:40.373Z,19.74
2016-03-30T08:48:40.407Z,19.64
2016-03-30T08:49:40.440Z,19.69
2016-03-30T08:50:40.303Z,19.77
2016-03-30T08:51:40.478Z,19.96
2016-03-30T08:52:40.496Z,19.92
2016-03-30T08:53:40.514Z,19.82
2016-03-30T08:54:40.548Z,19.79
2016-03-30T08:55:40.567Z,19.88
2016-03-30T08:56:40.585Z,19.94
2016-03-30T08:57:40.634Z,19.84
2016-03-30T08:58:40.636Z,19.56
2016-03-30T08:59:40.656Z,19.63
2016-03-30T09:00:40.767Z,19.41
2016-03-30T09:01:40.708Z,19.24
2016-03-30T09:02:40.741Z,19.19
2016-03-30T09:03:40.760Z,19.11
2016-03-30T09:04:40.778Z,18.99
2016-03-30T09:05:40.797Z,19.09
2016-03-30T09:06:40.846Z,19.14
2016-03-30T09:07:40.849Z,19.21
2016-03-30T09:08:40.882Z,19.14
2016-03-30T09:09:40.902Z,18.92
2016-03-30T09:10:40.919Z,18.74
2016-03-30T09:11:40.938Z,18.58
2016-03-30T09:12:40.972Z,18.55
2016-03-30T09:13:41.006Z,18.52
2016-03-30T09:14:41.024Z,18.41
2016-03-30T09:15:41.152Z,18.56
2016-03-30T09:16:41.061Z,18.44
2016-03-30T09:17:41.079Z,18.49
2016-03-30T09:18:41.098Z,18.58
2016-03-30T09:19:41.131Z,18.84
2016-03-30T09:20:41.150Z,18.95
2016-03-30T09:21:41.215Z,19.08
2016-03-30T09:22:41.187Z,18.99
2016-03-30T09:23:41.204Z,19
2016-03-30T09:24:41.238Z,18.75
2016-03-30T09:25:41.116Z,18.8
2016-03-30T09:26:41.291Z,18.78
2016-03-30T09:27:41.309Z,18.93
2016-03-30T09:28:41.358Z,19.09
2016-03-30T09:29:41.361Z,19.09
2016-03-30T09:30:41.567Z,19.15
2016-03-30T09:31:41.398Z,19.21
2016-03-30T09:32:41.431Z,19.02
2016-03-30T09:33:41.434Z,19.11
2016-03-30T09:34:41.453Z,19.19
2016-03-30T09:35:41.487Z,19.24
2016-03-30T09:36:41.724Z,19.11
2016-03-30T09:37:41.524Z,19.26
2016-03-30T09:38:41.557Z,19.4
2016-03-30T09:39:41.591Z,19.48
2016-03-30T09:40:41.625Z,19.58
2016-03-30T09:41:41.628Z,19.81
2016-03-30T09:42:41.646Z,19.91
2016-03-30T09:43:41.680Z,19.79
2016-03-30T09:44:41.730Z,19.73
2016-03-30T09:45:41.935Z,19.82
2016-03-30T09:46:41.735Z,19.96
2016-03-30T09:47:41.785Z,20.07
2016-03-30T09:48:41.787Z,20.04
2016-03-30T09:49:41.821Z,20.09
2016-03-30T09:50:41.824Z,20.32
2016-03-30T09:51:41.858Z,20.32
2016-03-30T09:52:41.876Z,20.44
2016-03-30T09:53:41.910Z,20.34
2016-03-30T09:54:41.945Z,20.25
2016-03-30T09:55:41.962Z,20.09
2016-03-30T09:56:41.981Z,20.06
2016-03-30T09:57:42.015Z,20.21
2016-03-30T09:58:42.017Z,20.31
2016-03-30T09:59:42.083Z,20.32
2016-03-30T10:00:42.131Z,20.43
2016-03-30T10:01:42.089Z,20.32
2016-03-30T10:02:42.106Z,20.31
2016-03-30T10:03:42.344Z,20.32
2016-03-30T10:04:42.174Z,20.28
2016-03-30T10:05:42.192Z,20.18
2016-03-30T10:06:42.211Z,20.25
2016-03-30T10:07:42.355Z,20.51
2016-03-30T10:08:42.248Z,20.39
2016-03-30T10:09:42.281Z,20.44
2016-03-30T10:10:42.283Z,20.36
2016-03-30T10:11:42.318Z,20.32
2016-03-30T10:12:42.349Z,20.21
2016-03-30T10:13:42.373Z,20.32
2016-03-30T10:14:42.396Z,20.21
2016-03-30T10:15:42.264Z,20.18
2016-03-30T10:16:42.412Z,20.29
2016-03-30T10:17:42.407Z,20.29
2016-03-30T10:18:42.420Z,20.36
2016-03-30T10:19:42.467Z,20.31
2016-03-30T10:20:42.481Z,20.24
2016-03-30T10:21:42.480Z,20.21
2016-03-30T10:22:42.526Z,20.22
2016-03-30T10:23:42.543Z,20.24
2016-03-30T10:24:42.560Z,20.24
2016-03-30T10:25:42.577Z,20.32
2016-03-30T10:26:42.609Z,20.34
2016-03-30T10:27:42.626Z,20.4
2016-03-30T10:28:42.660Z,20.21
2016-03-30T10:29:42.677Z,20.14
2016-03-30T10:30:42.726Z,20.32
2016-03-30T10:31:42.729Z,20.4
2016-03-30T10:32:42.747Z,20.41
2016-03-30T10:33:42.765Z,20.66
2016-03-30T10:34:42.799Z,20.74
2016-03-30T10:35:42.818Z,20.93
2016-03-30T10:36:42.836Z,21.03
2016-03-30T10:37:42.870Z,20.84
2016-03-30T10:38:42.888Z,20.81
2016-03-30T10:39:42.906Z,20.87
2016-03-30T10:40:42.940Z,20.95
2016-03-30T10:41:42.959Z,21.03
2016-03-30T10:42:42.993Z,21.15
2016-03-30T10:43:43.011Z,21.15
2016-03-30T10:44:43.030Z,21.14
2016-03-30T10:45:43.079Z,21.24
2016-03-30T10:46:43.081Z,21.32
2016-03-30T10:48:43.149Z,21.48
2016-03-30T10:49:43.152Z,21.52
2016-03-30T10:50:43.171Z,21.5
2016-03-30T10:51:43.204Z,21.67
2016-03-30T10:52:43.285Z,21.62
2016-03-30T10:53:43.273Z,21.72
2016-03-30T10:54:43.306Z,21.64
2016-03-30T10:55:43.293Z,21.57
2016-03-30T10:56:43.326Z,21.4
2016-03-30T10:57:43.345Z,21.25
2016-03-30T10:58:43.364Z,21.35
2016-03-30T10:59:43.382Z,21.42
2016-03-30T11:00:43.431Z,21.35
2016-03-30T11:01:43.450Z,21.24
2016-03-30T11:02:43.468Z,21.22
2016-03-30T11:03:43.486Z,21.17
2016-03-30T11:04:43.521Z,21
2016-03-30T11:05:43.539Z,21.05
2016-03-30T11:06:43.573Z,21.05
2016-03-30T11:07:43.575Z,21.02
2016-03-30T11:08:43.609Z,21.17
2016-03-30T11:09:43.674Z,21.2
2016-03-30T11:10:43.661Z,21.15
2016-03-30T11:11:43.680Z,21.2
2016-03-30T11:12:43.714Z,21.24
2016-03-30T11:13:43.732Z,21.29
2016-03-30T11:14:43.766Z,21.15
2016-03-30T11:15:43.784Z,20.97
2016-03-30T11:16:43.803Z,21.07
2016-03-30T11:17:43.821Z,21.14
2016-03-30T11:18:43.855Z,21.11
2016-03-30T11:19:43.873Z,21.15
2016-03-30T11:20:43.891Z,21.14
2016-03-30T11:21:43.910Z,21.15
2016-03-30T11:22:43.929Z,21
2016-03-30T11:23:43.962Z,21.06
2016-03-30T11:24:44.012Z,20.95
2016-03-30T11:25:44.030Z,21
2016-03-30T11:26:44.048Z,21.03
2016-03-30T11:27:44.067Z,20.8
2016-03-30T11:28:44.085Z,20.7
2016-03-30T11:29:44.134Z,20.55
2016-03-30T11:30:44.137Z,20.37
2016-03-30T11:31:44.171Z,20.31
2016-03-30T11:32:44.034Z,20.24
2016-03-30T11:33:44.255Z,20.16
2016-03-30T11:34:44.226Z,20.22
2016-03-30T11:35:44.260Z,20.02
2016-03-30T11:36:44.278Z,20.14
2016-03-30T11:37:44.312Z,20.07
2016-03-30T11:38:44.331Z,20
2016-03-30T11:39:44.350Z,20
2016-03-30T11:40:44.399Z,19.76
2016-03-30T11:41:44.417Z,19.73
2016-03-30T11:42:44.419Z,19.74
2016-03-30T11:43:44.438Z,19.64
2016-03-30T11:44:44.472Z,19.7
2016-03-30T11:45:44.522Z,19.71
2016-03-30T11:46:44.524Z,19.63
2016-03-30T11:47:44.542Z,19.74
2016-03-30T11:48:44.560Z,19.76
2016-03-30T11:49:44.610Z,19.62
2016-03-30T11:50:44.613Z,19.58
2016-03-30T11:51:44.631Z,19.67
2016-03-30T11:52:44.649Z,19.74
2016-03-30T11:53:44.684Z,19.79
2016-03-30T11:54:44.702Z,19.88
2016-03-30T11:55:44.736Z,19.76
2016-03-30T11:56:44.754Z,19.7
2016-03-30T11:57:44.772Z,19.77
2016-03-30T11:58:44.791Z,19.81
2016-03-30T11:59:44.825Z,19.89
2016-03-30T12:00:44.828Z,19.85
2016-03-30T12:01:44.861Z,19.89
2016-03-30T12:02:44.879Z,19.79
2016-03-30T12:03:44.914Z,19.67
2016-03-30T12:04:44.932Z,19.69
2016-03-30T12:05:44.966Z,19.66
2016-03-30T12:06:44.983Z,19.58
2016-03-30T12:07:45.017Z,19.55
2016-03-30T12:08:45.021Z,19.63
2016-03-30T12:09:45.059Z,19.69
2016-03-30T12:10:45.062Z,19.76
2016-03-30T12:11:45.110Z,19.67
2016-03-30T12:12:45.129Z,19.67
2016-03-30T12:13:45.131Z,19.73
2016-03-30T12:14:45.166Z,19.56
2016-03-30T12:15:45.184Z,19.58
2016-03-30T12:16:45.202Z,19.56
2016-03-30T12:17:45.236Z,19.62
2016-03-30T12:18:45.255Z,19.66
2016-03-30T12:19:45.273Z,19.74
2016-03-30T12:20:45.292Z,19.86
2016-03-30T12:21:45.325Z,19.71
2016-03-30T12:22:45.359Z,19.89
2016-03-30T12:23:45.362Z,19.91
2016-03-30T12:24:45.381Z,19.99
2016-03-30T12:25:45.430Z,20.09
2016-03-30T12:26:45.432Z,20
2016-03-30T12:27:45.497Z,20.02
2016-03-30T12:28:45.485Z,19.74
2016-03-30T12:29:45.503Z,19.79
2016-03-30T12:30:45.522Z,19.86
2016-03-30T12:31:45.539Z,19.88
2016-03-30T12:32:45.558Z,19.88
2016-03-30T12:33:45.608Z,19.77
2016-03-30T12:34:45.626Z,19.77
2016-03-30T12:35:45.629Z,19.77
2016-03-30T12:36:45.646Z,19.66
2016-03-30T12:37:45.697Z,19.66
2016-03-30T12:38:45.699Z,19.56
2016-03-30T12:39:45.718Z,19.62
2016-03-30T12:40:45.751Z,19.62
2016-03-30T12:41:45.785Z,19.64
2016-03-30T12:42:45.788Z,19.63
2016-03-30T12:43:45.837Z,19.66
2016-03-30T12:44:45.840Z,19.55
2016-03-30T12:45:45.873Z,19.63
2016-03-30T12:46:45.892Z,19.59
2016-03-30T12:47:45.911Z,19.62
2016-03-30T12:48:45.929Z,19.69
2016-03-30T12:49:45.948Z,19.54
2016-03-30T12:50:45.981Z,19.67
2016-03-30T12:51:45.984Z,19.67
2016-03-30T12:52:46.034Z,19.82
2016-03-30T12:53:46.036Z,19.89
2016-03-30T12:54:46.055Z,20.06
2016-03-30T12:55:46.089Z,20.09
2016-03-30T12:56:46.247Z,20.14
2016-03-30T12:57:46.125Z,20.04
2016-03-30T12:58:46.144Z,20.14
2016-03-30T12:59:46.177Z,20.16
2016-03-30T13:00:46.196Z,20.24
2016-03-30T13:01:46.230Z,20.31
2016-03-30T13:02:48.452Z,20.32